createdAt,value
2023-02-09T00:02:41.524Z,58.93
2023-02-09T00:05:43.970Z,59.34
2023-02-09T00:08:45.699Z,59.15
2023-02-09T00:12:11.690Z,59.43
2023-02-09T00:15:14.782Z,58.99
2023-02-09T00:18:16.173Z,58.77
2023-02-09T00:21:18.617Z,58.22
2023-02-09T00:24:19.913Z,59.36
2023-02-09T00:27:22.412Z,58.67
2023-02-09T00:30:25.521Z,59.32
2023-02-09T00:33:27.154Z,59.64
2023-02-09T00:36:29.875Z,59.31
2023-02-09T00:39:31.258Z,59.29
2023-02-09T00:42:33.700Z,58.76
2023-02-09T00:45:36.911Z,59.71
2023-02-09T00:48:38.234Z,58.91
2023-02-09T00:51:40.616Z,59.18
2023-02-09T00:54:41.929Z,59.04
2023-02-09T00:57:44.383Z,59.81
2023-02-09T01:00:47.662Z,60.47
2023-02-09T01:03:49.122Z,59.41
2023-02-09T01:06:51.543Z,59.97
2023-02-09T01:09:52.817Z,60.45
2023-02-09T01:12:55.250Z,59.96
2023-02-09T01:15:58.325Z,60.00
2023-02-09T01:19:01.001Z,60.05
2023-02-09T01:22:04.106Z,60.47
2023-02-09T01:25:07.090Z,59.52
2023-02-09T01:28:09.525Z,61.05
2023-02-09T01:31:21.342Z,60.40
2023-02-09T01:34:24.018Z,60.12
2023-02-09T01:37:25.336Z,59.48
2023-02-09T01:40:27.771Z,61.13
2023-02-09T01:43:30.192Z,61.30
2023-02-09T01:46:33.763Z,61.39
2023-02-09T01:49:36.261Z,61.51
2023-02-09T01:52:39.302Z,61.53
2023-02-09T01:55:46.533Z,62.05
2023-02-09T01:58:49.209Z,62.71
2023-02-09T02:01:52.524Z,62.48
2023-02-09T02:04:55.041Z,61.92
2023-02-09T02:08:04.089Z,62.64
2023-02-09T02:11:05.804Z,61.50
2023-02-09T02:14:08.222Z,61.19
2023-02-09T02:17:20.173Z,60.77
2023-02-09T02:21:03.328Z,60.66
2023-02-09T02:24:24.437Z,60.12
2023-02-09T02:27:32.288Z,61.17
2023-02-09T02:30:52.721Z,60.21
2023-02-09T02:34:02.906Z,60.49
2023-02-09T02:37:16.775Z,60.39
2023-02-09T02:40:29.627Z,60.47
2023-02-09T02:43:42.437Z,60.05
2023-02-09T02:46:47.515Z,60.31
2023-02-09T02:49:54.390Z,60.12
2023-02-09T02:53:00.363Z,59.87
2023-02-09T02:56:07.088Z,59.98
2023-02-09T02:59:15.001Z,59.30
2023-02-09T03:02:19.781Z,59.57
2023-02-09T03:05:24.663Z,59.36
2023-02-09T03:11:51.473Z,60.69
2023-02-09T03:15:13.694Z,59.53
2023-02-09T03:18:27.327Z,60.26
2023-02-09T03:21:39.721Z,60.11
2023-02-09T03:24:47.219Z,59.49
2023-02-09T03:27:54.947Z,59.81
2023-02-09T03:30:59.574Z,60.65
2023-02-09T03:34:02.920Z,60.00
2023-02-09T03:37:04.865Z,60.10
2023-02-09T03:43:43.499Z,58.27
2023-02-09T03:46:44.787Z,59.58
2023-02-09T03:49:46.149Z,59.08
2023-02-09T03:52:48.071Z,59.37
2023-02-09T03:55:50.630Z,59.48
2023-02-09T03:58:52.209Z,58.65
2023-02-09T04:01:56.156Z,59.17
2023-02-09T04:04:58.648Z,58.96
2023-02-09T04:08:00.705Z,58.71
2023-02-09T04:11:03.285Z,58.45
2023-02-09T04:14:05.494Z,58.57
2023-02-09T04:17:08.084Z,59.25
2023-02-09T04:20:10.088Z,58.82
2023-02-09T04:23:13.318Z,59.31
2023-02-09T04:26:16.377Z,59.46
2023-02-09T04:29:17.664Z,58.90
2023-02-09T04:35:39.922Z,58.94
2023-02-09T04:38:43.213Z,58.69
2023-02-09T04:41:45.800Z,58.96
2023-02-09T04:44:47.090Z,57.76
2023-02-09T04:47:49.611Z,58.10
2023-02-09T04:50:53.028Z,58.11
2023-02-09T04:53:54.916Z,59.37
2023-02-09T04:57:12.018Z,58.50
2023-02-09T05:00:14.103Z,58.40
2023-02-09T05:03:16.971Z,58.65
2023-02-09T05:06:18.684Z,58.60
2023-02-09T05:09:21.934Z,58.86
2023-02-09T05:12:24.463Z,59.03
2023-02-09T05:15:25.800Z,58.84
2023-02-09T05:18:28.360Z,58.13
2023-02-09T05:21:29.628Z,59.34
2023-02-09T05:24:32.873Z,59.27
2023-02-09T05:27:35.391Z,59.14
2023-02-09T05:30:37.002Z,58.98
2023-02-09T05:33:39.556Z,58.96
2023-02-09T05:36:40.836Z,59.07
2023-02-09T05:39:43.986Z,59.69
2023-02-09T05:42:46.578Z,59.46
2023-02-09T05:45:47.901Z,58.71
2023-02-09T05:48:50.537Z,59.31
2023-02-09T05:51:51.803Z,60.04
2023-02-09T05:58:15.002Z,59.53
2023-02-09T06:01:17.549Z,60.00
2023-02-09T06:07:39.736Z,59.72
2023-02-09T06:10:42.895Z,60.73
2023-02-09T06:13:45.469Z,61.06
2023-02-09T06:16:46.905Z,60.13
2023-02-09T06:19:49.402Z,61.07
2023-02-09T06:22:50.753Z,60.84
2023-02-09T06:25:53.932Z,60.87
2023-02-09T06:28:56.433Z,61.32
2023-02-09T06:31:57.849Z,60.19
2023-02-09T06:35:00.523Z,59.75
2023-02-09T06:38:02.314Z,59.91
2023-02-09T06:41:06.164Z,59.16
2023-02-09T06:44:07.458Z,60.35
2023-02-09T06:47:10.030Z,60.30
2023-02-09T06:50:14.377Z,60.22
2023-02-09T06:53:16.419Z,59.34
2023-02-09T06:56:20.619Z,59.26
2023-02-09T06:59:23.389Z,58.65
2023-02-09T07:02:24.647Z,59.89
2023-02-09T07:05:27.927Z,59.03
2023-02-09T07:08:29.232Z,59.82
2023-02-09T07:11:32.490Z,59.39
2023-02-09T07:14:35.169Z,58.85
2023-02-09T07:17:36.437Z,58.15
2023-02-09T07:20:38.978Z,58.69
2023-02-09T07:23:40.259Z,58.23
2023-02-09T07:26:43.587Z,58.78
2023-02-09T07:29:44.972Z,58.51
2023-02-09T07:32:46.241Z,58.19
2023-02-09T07:35:49.566Z,58.77
2023-02-09T07:38:51.082Z,57.21
2023-02-09T07:41:54.542Z,56.62
2023-02-09T07:44:55.827Z,54.69
2023-02-09T07:47:58.398Z,54.25
2023-02-09T07:51:01.667Z,53.69
2023-02-09T07:54:07.083Z,55.08
2023-02-09T07:57:13.249Z,53.62
2023-02-09T08:00:17.755Z,54.48
2023-02-09T08:03:21.902Z,53.80
2023-02-09T08:06:41.018Z,55.47
2023-02-09T08:09:45.780Z,54.77
2023-02-09T08:13:00.915Z,54.20
2023-02-09T08:16:06.723Z,53.78
2023-02-09T08:19:13.418Z,54.53
2023-02-09T08:22:16.146Z,53.68
2023-02-09T08:25:20.552Z,53.57
2023-02-09T08:28:34.840Z,53.94
2023-02-09T08:31:44.615Z,53.65
2023-02-09T08:34:46.024Z,54.26
2023-02-09T08:37:48.584Z,53.20
2023-02-09T08:40:49.908Z,53.63
2023-02-09T08:43:53.085Z,52.80
2023-02-09T08:46:55.727Z,52.92
2023-02-09T08:49:59.381Z,51.91
2023-02-09T08:53:03.353Z,51.78
2023-02-09T08:56:05.344Z,50.73
2023-02-09T08:59:08.574Z,50.70
2023-02-09T09:02:11.139Z,50.43
2023-02-09T09:05:12.565Z,51.12
2023-02-09T09:08:15.050Z,50.55
2023-02-09T09:11:16.598Z,50.19
2023-02-09T09:14:19.787Z,49.78
2023-02-09T09:17:21.320Z,49.21
2023-02-09T09:20:23.916Z,49.63
2023-02-09T09:23:25.202Z,50.02
2023-02-09T09:26:27.730Z,48.93
2023-02-09T09:29:29.632Z,48.41
2023-02-09T09:32:32.277Z,48.58
2023-02-09T09:35:33.622Z,48.32
2023-02-09T09:38:37.758Z,48.35
2023-02-09T09:41:39.011Z,47.10
2023-02-09T09:44:47.322Z,48.06
2023-02-09T09:47:49.165Z,47.51
2023-02-09T09:50:55.975Z,47.19
2023-02-09T09:53:59.061Z,45.91
2023-02-09T09:57:02.081Z,46.08
2023-02-09T10:00:15.268Z,46.22
2023-02-09T10:03:18.948Z,45.88
2023-02-09T10:06:23.536Z,44.54
2023-02-09T10:09:34.503Z,45.37
2023-02-09T10:12:38.140Z,44.20
2023-02-09T10:15:41.924Z,42.48
2023-02-09T10:18:43.721Z,42.44
2023-02-09T10:21:46.213Z,42.41
2023-02-09T10:24:48.751Z,41.64
2023-02-09T10:27:50.010Z,40.77
2023-02-09T10:30:55.854Z,40.33
2023-02-09T10:34:02.174Z,40.67
2023-02-09T10:37:20.354Z,40.31
2023-02-09T10:40:28.416Z,39.50
2023-02-09T10:43:31.845Z,38.08
2023-02-09T10:46:35.361Z,39.02
2023-02-09T10:49:39.128Z,38.33
2023-02-09T10:52:54.260Z,36.01
2023-02-09T10:56:03.318Z,36.42
2023-02-09T10:59:15.910Z,37.05
2023-02-09T11:02:33.841Z,37.30
2023-02-09T11:05:35.229Z,36.08
2023-02-09T11:08:44.659Z,36.22
2023-02-09T11:11:46.436Z,35.65
2023-02-09T11:14:49.449Z,36.36
2023-02-09T11:17:55.784Z,35.59
2023-02-09T11:21:06.570Z,35.90
2023-02-09T11:24:17.311Z,36.25
2023-02-09T11:27:32.029Z,35.68
2023-02-09T11:30:55.250Z,34.04
2023-02-09T11:34:08.433Z,34.34
2023-02-09T11:40:51.833Z,34.41
2023-02-09T11:43:55.000Z,34.64
2023-02-09T11:47:04.992Z,33.25
2023-02-09T11:50:10.440Z,34.40
2023-02-09T11:53:20.958Z,33.79
2023-02-09T11:56:25.300Z,33.61
2023-02-09T11:59:31.665Z,34.41
2023-02-09T12:02:46.603Z,34.40
2023-02-09T12:05:50.391Z,34.64
2023-02-09T12:09:00.408Z,33.81
2023-02-09T12:12:11.675Z,34.34
2023-02-09T12:15:16.000Z,34.45
2023-02-09T12:18:21.874Z,34.92
2023-02-09T12:21:29.370Z,35.35
2023-02-09T12:24:34.567Z,35.59
2023-02-09T12:27:38.275Z,33.78
2023-02-09T12:31:02.561Z,35.05
2023-02-09T12:34:23.813Z,35.19
2023-02-09T12:37:29.378Z,35.08
2023-02-09T12:40:37.729Z,35.86
2023-02-09T12:43:41.456Z,37.42
2023-02-09T12:46:52.103Z,36.55
2023-02-09T12:50:04.541Z,36.83
2023-02-09T12:53:33.799Z,36.95
2023-02-09T12:56:37.111Z,36.47
2023-02-09T12:59:38.377Z,36.96
2023-02-09T13:02:42.746Z,37.55
2023-02-09T13:05:46.922Z,37.63
2023-02-09T13:08:53.733Z,37.37
2023-02-09T13:12:05.037Z,37.61
2023-02-09T13:15:14.230Z,38.19
2023-02-09T13:18:20.009Z,38.44
2023-02-09T13:21:34.841Z,38.29
2023-02-09T13:24:43.746Z,38.56
2023-02-09T13:27:49.031Z,38.03
2023-02-09T13:30:50.484Z,39.07
2023-02-09T13:33:59.566Z,39.60
2023-02-09T13:37:13.475Z,37.88
2023-02-09T13:40:22.739Z,38.49
2023-02-09T13:43:28.679Z,38.47
2023-02-09T13:46:35.584Z,38.67
2023-02-09T13:49:37.064Z,38.61
2023-02-09T13:52:40.552Z,39.61
2023-02-09T13:59:06.555Z,39.33
2023-02-09T14:02:25.046Z,39.06
2023-02-09T14:05:36.825Z,39.26
2023-02-09T14:08:41.475Z,38.80
2023-02-09T14:11:50.716Z,39.05
2023-02-09T14:15:14.887Z,39.81
2023-02-09T14:18:33.358Z,40.02
2023-02-09T14:21:44.553Z,40.33
2023-02-09T14:24:47.098Z,40.56
2023-02-09T14:27:50.393Z,39.96
2023-02-09T14:30:51.798Z,40.34
2023-02-09T14:33:56.493Z,40.65
2023-02-09T14:37:00.030Z,41.04
2023-02-09T14:40:20.133Z,39.85
2023-02-09T14:43:25.848Z,40.81
2023-02-09T14:46:27.204Z,40.72
2023-02-09T14:49:30.124Z,39.94
2023-02-09T14:52:32.457Z,40.52
2023-02-09T14:55:40.700Z,40.69
2023-02-09T14:58:42.764Z,40.39
2023-02-09T15:01:45.839Z,40.45
2023-02-09T15:04:47.207Z,41.34
2023-02-09T15:07:53.984Z,40.53
2023-02-09T15:14:24.842Z,41.07
2023-02-09T15:17:29.057Z,42.20
2023-02-09T15:20:32.035Z,41.72
2023-02-09T15:23:33.334Z,41.34
2023-02-09T15:26:37.586Z,41.53
2023-02-09T15:29:39.576Z,41.59
2023-02-09T15:36:03.157Z,40.94
2023-02-09T15:39:11.968Z,41.17
2023-02-09T15:42:35.017Z,41.10
2023-02-09T15:45:55.269Z,41.64
2023-02-09T15:48:57.843Z,42.00
2023-02-09T15:52:00.702Z,43.31
2023-02-09T15:55:02.049Z,43.34
2023-02-09T15:58:05.355Z,43.51
2023-02-09T16:01:10.563Z,44.17
2023-02-09T16:04:14.648Z,44.69
2023-02-09T16:07:24.563Z,44.79
2023-02-09T16:10:28.372Z,45.41
2023-02-09T16:13:30.994Z,45.35
2023-02-09T16:16:33.043Z,46.59
2023-02-09T16:19:35.672Z,46.99
2023-02-09T16:22:39.650Z,47.48
2023-02-09T16:25:42.758Z,47.12
2023-02-09T16:28:45.390Z,46.35
2023-02-09T16:31:47.964Z,46.72
2023-02-09T16:34:51.488Z,47.46
2023-02-09T16:37:54.464Z,47.34
2023-02-09T16:40:57.356Z,47.52
2023-02-09T16:43:59.245Z,48.37
2023-02-09T16:47:02.718Z,48.00
2023-02-09T16:50:16.572Z,47.14
2023-02-09T16:53:24.602Z,47.91
2023-02-09T16:56:26.741Z,47.54
2023-02-09T16:59:29.464Z,47.97
2023-02-09T17:02:36.417Z,47.94
2023-02-09T17:09:00.228Z,48.36
2023-02-09T17:12:01.549Z,47.49
2023-02-09T17:15:04.225Z,47.38
2023-02-09T17:18:08.955Z,46.58
2023-02-09T17:21:17.425Z,47.80
2023-02-09T17:24:18.758Z,47.95
2023-02-09T17:27:21.285Z,48.52
2023-02-09T17:30:23.883Z,47.88
2023-02-09T17:33:28.163Z,48.54
2023-02-09T17:36:31.584Z,48.35
2023-02-09T17:39:33.172Z,48.37
2023-02-09T17:42:37.781Z,48.60
2023-02-09T17:45:40.440Z,48.32
2023-02-09T17:48:42.658Z,48.82
2023-02-09T17:55:17.488Z,49.98
2023-02-09T17:58:18.907Z,49.36
2023-02-09T18:01:26.597Z,49.13
2023-02-09T18:04:30.917Z,49.19
2023-02-09T18:07:33.631Z,49.88
2023-02-09T18:10:36.059Z,49.58
2023-02-09T18:13:38.628Z,50.40
2023-02-09T18:16:40.521Z,50.72
2023-02-09T18:19:43.728Z,51.28
2023-02-09T18:22:45.176Z,50.49
2023-02-09T18:25:50.093Z,50.95
2023-02-09T18:28:52.928Z,50.64
2023-02-09T18:31:55.739Z,51.32
2023-02-09T18:34:59.180Z,51.96
2023-02-09T18:38:01.534Z,51.71
2023-02-09T18:41:04.308Z,51.83
2023-02-09T18:44:07.005Z,52.06
2023-02-09T18:47:10.033Z,52.10
2023-02-09T18:50:17.120Z,52.05
2023-02-09T18:53:21.340Z,52.54
2023-02-09T18:56:26.262Z,52.36
2023-02-09T18:59:30.181Z,52.82
2023-02-09T19:02:31.576Z,52.87
2023-02-09T19:05:35.942Z,53.30
2023-02-09T19:08:38.604Z,52.75
2023-02-09T19:11:43.126Z,52.33
2023-02-09T19:14:46.912Z,53.32
2023-02-09T19:17:48.536Z,53.24
2023-02-09T19:20:56.004Z,53.91
2023-02-09T19:23:57.453Z,53.86
2023-02-09T19:30:24.206Z,53.89
2023-02-09T19:33:26.820Z,54.30
2023-02-09T19:36:30.043Z,53.90
2023-02-09T19:39:32.256Z,54.13
2023-02-09T19:42:35.084Z,55.05
2023-02-09T19:45:37.949Z,55.13
2023-02-09T19:48:39.610Z,54.95
2023-02-09T19:51:42.808Z,55.21
2023-02-09T19:54:44.553Z,55.62
2023-02-09T19:57:47.171Z,55.77
2023-02-09T20:00:50.663Z,55.54
2023-02-09T20:03:52.469Z,55.63
2023-02-09T20:06:55.810Z,55.90
2023-02-09T20:09:57.327Z,56.13
2023-02-09T20:12:59.932Z,56.59
2023-02-09T20:16:07.013Z,56.32
2023-02-09T20:19:08.380Z,56.57
2023-02-09T20:22:13.319Z,56.33
2023-02-09T20:25:14.737Z,56.75
2023-02-09T20:28:17.608Z,56.56
2023-02-09T20:31:20.880Z,57.20
2023-02-09T20:34:22.206Z,57.43
2023-02-09T20:37:25.513Z,56.90
2023-02-09T20:40:26.860Z,56.66
2023-02-09T20:43:48.079Z,57.18
2023-02-09T20:46:58.255Z,56.87
2023-02-09T20:50:01.273Z,57.23
2023-02-09T20:53:03.295Z,57.50
2023-02-09T20:56:06.556Z,57.82
2023-02-09T20:59:08.290Z,57.95
2023-02-09T21:02:12.438Z,57.63
2023-02-09T21:05:15.122Z,57.66
2023-02-09T21:08:17.105Z,58.08
2023-02-09T21:11:19.792Z,57.62
2023-02-09T21:14:27.645Z,57.73
2023-02-09T21:21:10.145Z,58.06
2023-02-09T21:24:13.570Z,57.87
2023-02-09T21:27:14.957Z,58.35
2023-02-09T21:33:38.940Z,58.39
2023-02-09T21:36:40.278Z,58.29
2023-02-09T21:39:43.608Z,58.22
2023-02-09T21:42:44.893Z,58.05
2023-02-09T21:45:47.553Z,58.06
2023-02-09T21:48:49.088Z,58.25
2023-02-09T21:51:51.745Z,58.52
2023-02-09T21:54:53.741Z,57.87
2023-02-09T21:57:56.400Z,57.43
2023-02-09T22:00:59.263Z,56.83
2023-02-09T22:04:02.787Z,57.33
2023-02-09T22:07:05.001Z,57.55
2023-02-09T22:10:09.200Z,57.32
2023-02-09T22:13:10.956Z,57.50
2023-02-09T22:16:19.335Z,57.37
2023-02-09T22:19:20.643Z,57.96
2023-02-09T22:22:23.207Z,56.98
2023-02-09T22:25:26.469Z,56.42
2023-02-09T22:28:28.225Z,56.64
2023-02-09T22:31:30.823Z,56.58
2023-02-09T22:34:32.135Z,56.60
2023-02-09T22:37:34.775Z,56.53
2023-02-09T22:40:36.745Z,56.77
2023-02-09T22:43:39.671Z,56.23
2023-02-09T22:46:44.515Z,56.80
2023-02-09T22:49:46.276Z,56.69
2023-02-09T22:56:11.509Z,56.55
2023-02-09T22:59:14.672Z,55.52
2023-02-09T23:02:17.258Z,56.00
2023-02-09T23:05:18.609Z,56.36
2023-02-09T23:08:23.061Z,58.30
2023-02-09T23:11:25.500Z,58.72
2023-02-09T23:14:28.218Z,58.72
2023-02-09T23:17:32.194Z,58.27
2023-02-09T23:20:33.524Z,58.78
2023-02-09T23:23:36.220Z,58.30
2023-02-09T23:26:38.754Z,59.07
2023-02-09T23:29:41.297Z,58.56
2023-02-09T23:32:43.853Z,59.30
2023-02-09T23:35:45.211Z,59.46
2023-02-09T23:38:48.262Z,58.54
2023-02-09T23:41:50.296Z,58.54
2023-02-09T23:44:52.944Z,58.81
2023-02-09T23:47:54.318Z,58.71
2023-02-09T23:50:59.701Z,59.06
2023-02-09T23:54:03.161Z,59.22
2023-02-09T23:57:06.386Z,59.22
